Terminal Aerodrome Forecast
Issued by NWS Newport/Morehead City, NC

Home | Current Version | Previous Version | Graphics & Text | Print | Product List | Glossary On
Versions: 1 2 3 4 5 6 7 8 9 10 11 12 13 14 15 16 17 18
823
FTUS42 KMHX 190725 AAA
TAFEWN
TAF AMD
KEWN 190725Z 1907/2006 00000KT 1SM BR VV002
     FM191100 VRB03KT P6SM SKC
     FM191400 03005KT P6SM SCT250=

USA.gov is the U.S. government's official web portal to all federal, state and local government web resources and services.